Time;durP1;ratioP1;P1;durP2;ratioP2;P2;SDS_P1;SDS_P2;PMS_P1;PMS_P2;Temp;Humidity;BMP_temperature;BMP_pressure;BME280_temperature;BME280_humidity;BME280_pressure;Samples;Min_cycle;Max_cycle;Signal;HPM_P1;HPM_P2
2022/04/06 00:08:28;;;;;;;7.10;2.17;;;9.80;99.90;;;;;;6766591;88;20212;-82
2022/04/06 00:18:29;;;;;;;7.30;2.30;;;9.80;99.90;;;;;;6748808;88;20162;-82
2022/04/06 00:28:30;;;;;;;8.32;2.10;;;9.80;99.90;;;;;;6748111;88;20240;-82
2022/04/06 00:38:31;;;;;;;9.50;2.45;;;9.70;99.90;;;;;;6711197;88;20204;-83
2022/04/06 00:48:31;;;;;;;6.47;2.25;;;9.80;99.90;;;;;;6713597;88;20166;-82
2022/04/06 00:58:32;;;;;;;9.57;2.55;;;9.70;99.90;;;;;;6713704;88;20194;-82
2022/04/06 01:08:34;;;;;;;8.32;2.37;;;9.70;99.90;;;;;;6712608;88;20167;-81
2022/04/06 01:18:36;;;;;;;8.35;2.22;;;9.80;99.90;;;;;;6729249;88;20181;-82
2022/04/06 01:28:37;;;;;;;6.62;2.37;;;9.70;99.90;;;;;;6743355;88;20169;-81
2022/04/06 01:38:38;;;;;;;7.60;1.98;;;9.60;99.90;;;;;;6730295;88;20719;-82
2022/04/06 01:52:12;;;;;;;7.37;1.95;;;9.80;99.90;;;;;;6729037;88;20185;-82
2022/04/06 01:58:59;;;;;;;6.28;1.77;;;9.80;99.90;;;;;;6712609;88;20214;-81
2022/04/06 02:09:00;;;;;;;8.95;1.92;;;9.70;99.90;;;;;;6712280;88;20951;-82
2022/04/06 02:19:01;;;;;;;6.25;1.75;;;9.70;99.90;;;;;;6695814;88;20178;-82
2022/04/06 02:29:02;;;;;;;5.85;2.10;;;9.70;99.90;;;;;;6721984;88;20169;-82
2022/04/06 02:39:03;;;;;;;8.13;2.28;;;9.70;99.90;;;;;;6713151;88;20189;-82
2022/04/06 02:49:04;;;;;;;8.18;2.10;;;9.70;99.90;;;;;;6711875;88;20194;-82
2022/04/06 02:59:05;;;;;;;6.12;1.83;;;9.70;99.90;;;;;;6727735;88;20205;-83
2022/04/06 03:09:06;;;;;;;6.65;1.80;;;9.60;99.90;;;;;;6707090;88;20302;-81
2022/04/06 03:19:06;;;;;;;7.10;1.70;;;9.60;99.90;;;;;;6710490;88;20962;-82
2022/04/06 03:29:07;;;;;;;5.18;1.15;;;9.60;99.90;;;;;;6709891;88;20222;-82
2022/04/06 03:49:11;;;;;;;5.62;1.35;;;9.70;99.90;;;;;;6766182;88;20246;-83
2022/04/06 03:59:11;;;;;;;6.25;1.48;;;9.80;99.90;;;;;;6780245;87;20268;-82
2022/04/06 04:09:12;;;;;;;8.43;1.27;;;9.80;99.90;;;;;;6784266;87;20222;-82
2022/04/06 04:19:12;;;;;;;3.08;1.10;;;9.80;99.90;;;;;;6785303;87;20193;-82
2022/04/06 04:29:13;;;;;;;5.03;1.08;;;9.80;99.90;;;;;;6786674;87;20874;-82
2022/04/06 04:39:14;;;;;;;6.00;1.20;;;9.70;99.90;;;;;;6786442;87;20220;-81
2022/04/06 04:49:15;;;;;;;3.65;1.10;;;9.60;99.90;;;;;;6786383;87;20825;-82
2022/04/06 04:59:15;;;;;;;2.57;1.00;;;9.60;99.90;;;;;;6766914;88;20179;-82
2022/04/06 05:09:17;;;;;;;5.10;1.30;;;9.60;99.90;;;;;;6766921;88;20510;-82
2022/04/06 05:19:18;;;;;;;6.72;1.10;;;9.60;99.90;;;;;;6766904;88;20821;-82
2022/04/06 05:29:18;;;;;;;3.97;1.02;;;9.60;99.90;;;;;;6749033;88;20193;-83
2022/04/06 05:39:19;;;;;;;2.83;0.93;;;9.60;99.90;;;;;;6749309;87;20169;-81
2022/04/06 05:49:19;;;;;;;4.43;1.40;;;9.60;99.90;;;;;;6783378;87;20517;-82
2022/04/06 05:59:20;;;;;;;2.85;1.00;;;9.50;99.90;;;;;;6798625;87;20682;-82
2022/04/06 06:09:20;;;;;;;4.82;1.37;;;9.60;99.90;;;;;;6802277;87;20183;-83
2022/04/06 06:19:21;;;;;;;3.87;0.90;;;9.50;99.90;;;;;;6802584;87;20878;-84
2022/04/06 06:29:22;;;;;;;5.00;1.10;;;9.70;99.90;;;;;;6803747;87;20222;-84
2022/04/06 06:39:23;;;;;;;3.37;1.00;;;9.70;99.90;;;;;;6800881;87;20415;-84
2022/04/06 06:49:24;;;;;;;4.78;0.90;;;9.70;99.90;;;;;;6783951;87;20163;-84
2022/04/06 06:59:24;;;;;;;3.42;0.77;;;9.80;99.90;;;;;;6783728;87;20190;-83
2022/04/06 07:09:25;;;;;;;4.18;1.10;;;9.80;99.90;;;;;;6770255;87;20179;-85
2022/04/06 07:19:26;;;;;;;3.87;0.70;;;9.90;99.90;;;;;;6771487;87;20906;-85
2022/04/06 07:29:26;;;;;;;3.12;1.05;;;9.90;99.90;;;;;;6800959;87;20239;-86
2022/04/06 07:39:27;;;;;;;3.05;0.82;;;9.90;99.90;;;;;;6800682;87;20154;-84
2022/04/06 07:49:28;;;;;;;1.95;0.80;;;9.90;99.90;;;;;;6801206;87;20169;-85
2022/04/06 07:59:28;;;;;;;2.05;0.85;;;10.10;99.90;;;;;;6789665;87;20198;-84
2022/04/06 08:09:29;;;;;;;7.57;1.00;;;10.20;99.90;;;;;;6751247;88;20210;-83
2022/04/06 08:19:31;;;;;;;2.83;0.95;;;10.40;99.90;;;;;;6751018;88;20189;-86
2022/04/06 08:29:31;;;;;;;4.12;0.88;;;10.60;99.90;;;;;;6733913;88;20389;-83
2022/04/06 08:39:32;;;;;;;3.85;1.17;;;10.70;99.90;;;;;;6760735;87;20297;-86
2022/04/06 08:49:36;;;;;;;2.45;0.90;;;10.70;99.90;;;;;;6750605;88;20181;-84
2022/04/06 08:59:37;;;;;;;6.37;0.95;;;10.70;99.90;;;;;;6778059;87;20188;-85
2022/04/06 09:09:37;;;;;;;2.22;0.62;;;10.80;99.90;;;;;;6750432;88;20825;-87
2022/04/06 09:19:44;;;;;;;5.75;0.80;;;11.20;99.90;;;;;;6760556;88;20198;-85
2022/04/06 09:29:49;;;;;;;3.50;1.00;;;11.10;99.90;;;;;;6750271;88;20863;-84
2022/04/06 10:00:01;;;;;;;3.50;0.70;;;10.90;99.90;;;;;;7627594;77;20249;31
2022/04/06 11:50:43;;;;;;;2.08;0.50;;;12.10;99.90;;;;;;7555731;77;20285;31
2022/04/06 15:52:15;;;;;;;2.45;1.10;;;12.70;99.90;;;;;;6762206;88;20215;-79
2022/04/06 16:02:16;;;;;;;2.97;1.10;;;12.60;99.90;;;;;;6757103;88;20864;-81
2022/04/06 16:12:17;;;;;;;2.15;1.10;;;12.40;99.90;;;;;;6764375;88;20253;-82
2022/04/06 16:22:19;;;;;;;3.75;1.50;;;12.40;99.90;;;;;;6768417;88;20214;-82
2022/04/06 16:32:19;;;;;;;4.30;1.40;;;12.30;99.90;;;;;;6767040;88;20203;-80
2022/04/06 16:42:20;;;;;;;6.47;1.90;;;12.20;99.90;;;;;;6762032;88;20180;-81
2022/04/06 17:02:42;;;;;;;3.53;1.45;;;12.20;99.90;;;;;;6740037;88;20177;-81
2022/04/06 17:12:43;;;;;;;6.22;2.03;;;12.30;99.90;;;;;;6746804;88;20211;-80
2022/04/06 17:22:43;;;;;;;4.93;2.20;;;12.30;99.90;;;;;;6754859;88;20193;-81
2022/04/06 17:32:44;;;;;;;4.28;1.90;;;12.30;99.90;;;;;;6761008;88;20732;-81
2022/04/06 17:42:46;;;;;;;5.12;1.87;;;12.20;99.90;;;;;;6724776;88;20193;-81
2022/04/06 17:52:47;;;;;;;4.57;1.92;;;12.10;99.90;;;;;;6734183;88;20719;-79
2022/04/06 18:02:48;;;;;;;4.45;2.42;;;12.00;99.90;;;;;;6742469;88;20188;-78
2022/04/06 18:23:08;;;;;;;7.00;2.50;;;11.80;99.90;;;;;;6745352;88;20161;-81
2022/04/06 18:33:08;;;;;;;5.45;2.55;;;11.90;99.90;;;;;;6746116;88;20293;-81
2022/04/06 18:43:11;;;;;;;6.75;2.87;;;11.70;99.90;;;;;;6735940;88;20213;-79
2022/04/06 18:53:13;;;;;;;7.10;3.00;;;11.80;99.90;;;;;;6734511;88;20242;-79
2022/04/06 19:03:14;;;;;;;6.72;2.87;;;11.80;99.90;;;;;;6745426;88;20742;-81
2022/04/06 19:13:14;;;;;;;5.32;2.70;;;11.80;99.90;;;;;;6744771;88;20203;-80
2022/04/06 19:23:15;;;;;;;6.65;2.78;;;11.70;99.90;;;;;;6736895;88;20200;-80
2022/04/06 19:33:15;;;;;;;5.70;2.90;;;11.70;99.90;;;;;;6697210;88;20241;-80
2022/04/06 19:43:16;;;;;;;6.22;3.20;;;11.80;99.90;;;;;;6732939;88;20249;-79
2022/04/06 19:53:17;;;;;;;7.15;3.17;;;11.60;99.90;;;;;;6733945;88;20248;-80
2022/04/06 20:03:17;;;;;;;7.37;3.22;;;11.60;99.90;;;;;;6733463;88;20351;-79
2022/04/06 20:13:18;;;;;;;7.87;3.45;;;11.60;99.90;;;;;;6732590;88;20208;-79
2022/04/06 20:23:18;;;;;;;6.03;3.00;;;11.60;99.90;;;;;;6732610;88;20226;-78
2022/04/06 20:33:19;;;;;;;6.78;3.35;;;11.50;99.90;;;;;;6731889;88;20621;-79
2022/04/06 20:43:21;;;;;;;6.87;3.55;;;11.60;99.90;;;;;;6731923;88;20582;-79
2022/04/06 20:53:21;;;;;;;8.00;3.42;;;11.30;99.90;;;;;;6733178;88;20234;-79
2022/04/06 21:03:22;;;;;;;5.43;2.47;;;11.40;99.90;;;;;;6733237;88;20694;-78
2022/04/06 21:13:22;;;;;;;5.18;2.30;;;11.50;99.90;;;;;;6730881;88;20752;-78
2022/04/06 21:23:23;;;;;;;6.80;2.42;;;11.50;99.90;;;;;;6730611;88;20231;-78
2022/04/06 21:33:24;;;;;;;4.55;2.25;;;11.50;99.90;;;;;;6732503;88;20785;-78
2022/04/06 21:43:27;;;;;;;5.03;2.08;;;11.50;99.90;;;;;;6732476;88;20619;-78
2022/04/06 21:53:27;;;;;;;3.50;2.20;;;11.50;99.90;;;;;;6741349;88;20215;-78
2022/04/06 22:03:28;;;;;;;8.68;2.55;;;11.30;99.90;;;;;;6736996;88;20194;-77
2022/04/06 22:13:29;;;;;;;6.85;2.70;;;11.10;99.90;;;;;;6728393;88;20188;-78
2022/04/06 22:23:31;;;;;;;5.00;2.58;;;11.00;99.90;;;;;;6739758;88;20269;-78
2022/04/06 22:33:31;;;;;;;5.18;2.53;;;11.00;99.90;;;;;;6756360;88;20216;-79
2022/04/06 22:43:32;;;;;;;7.82;2.78;;;10.90;99.90;;;;;;6744097;88;20829;-79
2022/04/06 22:53:32;;;;;;;5.00;2.10;;;11.00;99.90;;;;;;6749483;88;20269;-79
2022/04/06 23:03:33;;;;;;;4.57;2.20;;;11.00;99.90;;;;;;6748667;88;20222;-78
2022/04/06 23:13:34;;;;;;;3.83;2.00;;;11.10;99.90;;;;;;6747349;88;20219;-79
2022/04/06 23:23:34;;;;;;;4.30;1.90;;;11.10;99.90;;;;;;6746004;88;20266;-78
2022/04/06 23:33:35;;;;;;;4.97;1.90;;;11.30;99.90;;;;;;6728112;88;20189;-78
2022/04/06 23:43:38;;;;;;;3.33;1.57;;;11.20;99.90;;;;;;6729002;88;20228;-78
2022/04/06 23:53:42;;;;;;;2.60;1.42;;;11.20;99.90;;;;;;6728210;88;20527;-78
